Etusivu
METAR-TAF:

METAR-TAF

Lentoasemat :

Wellingtonin kansainvälinen lentoasema

Wellington, Uusi-Seelanti

Leveyspiiri: 41-20S, Pituuspiiri: 174-48E, korkeus merenpinnasta: 12 m

Tämänhetkinen sää

Tämä raportti tehtiin 32 minuuttia sitten, kello 19.00 UTC
Tuuli 9 kn pohjoisesta/koillisesta
Lämpötila 13°C
Kosteus 82%
Ilmanpaine 1027 hPa
Näkyvyys 10 km tai enemmän

METAR: NZWN 211900Z AUTO 03009KT 9999 NCD 13/10 Q1027 NOSIG

Aika: 08:32 (19:32 UTC)

Sääennuste

Tämä raportti tehtiin 2 tuntia ja 28 minuuttia sitten, kello 17.04 UTC
Ennuste voimassa 21. päivästä klo 18 UTC - 22. päivään klo 18 UTC
Tuuli 10 kn pohjoisesta/koillisesta
Näkyvyys 10 km tai enemmän
Muutamia pilviä 2000 ft:n korkeudessa
Ajoittain
22. päivästä klo 11 UTC - 22. päivään klo 18 UTC
Hajonneita pilviä 1400 ft:n korkeudessa

TAF: NZWN 211704Z 2118/2218 02010KT 9999 FEW020 TEMPO 2211/2218 BKN014

Säähavainnot ja -ennusteet yli 4000 lentoasemalta (METAR- ja TAF-raportit).

Käytössä olevat sääasemat on merkitty karttaan keltaisilla ja punaisilla pisteillä.

Aseta hiiri pisteen päälle nähdäksesi sääaseman nimen.

Klikkaa sitten nähdäksesi säähavainnot ja -ennusteet.

Kartan vaihtaminen: klikkaa mustalla rastilla varustettuja vihreitä pisteitä, niin voit zoomata sisään; viivalla varustettua vihreää pistettä, niin voit zoomata ulos tai vihreitä nuolia, niin pääset viereisille kartoille.


METAR-TAF: